sensor_id;sensor_type;location;lat;lon;timestamp;temperature;humidity
19680;DHT22;9989;48.962;9.182;2023-04-03T00:01:10;6.80;99.90
19680;DHT22;9989;48.962;9.182;2023-04-03T00:03:36;6.90;99.90
19680;DHT22;9989;48.962;9.182;2023-04-03T00:06:03;6.80;99.90
19680;DHT22;9989;48.962;9.182;2023-04-03T00:08:30;6.90;99.90
19680;DHT22;9989;48.962;9.182;2023-04-03T00:10:58;6.90;99.90
19680;DHT22;9989;48.962;9.182;2023-04-03T00:13:24;6.90;99.90
19680;DHT22;9989;48.962;9.182;2023-04-03T00:15:50;6.90;99.90
19680;DHT22;9989;48.962;9.182;2023-04-03T00:18:16;6.90;99.90
19680;DHT22;9989;48.962;9.182;2023-04-03T00:20:42;7.00;99.90
19680;DHT22;9989;48.962;9.182;2023-04-03T00:23:07;7.00;99.90
19680;DHT22;9989;48.962;9.182;2023-04-03T00:25:33;7.00;99.90
19680;DHT22;9989;48.962;9.182;2023-04-03T00:28:00;7.00;99.90
19680;DHT22;9989;48.962;9.182;2023-04-03T00:30:26;7.00;99.90
19680;DHT22;9989;48.962;9.182;2023-04-03T00:32:52;7.00;99.90
19680;DHT22;9989;48.962;9.182;2023-04-03T00:35:19;7.00;99.90
19680;DHT22;9989;48.962;9.182;2023-04-03T00:37:45;6.90;99.90
19680;DHT22;9989;48.962;9.182;2023-04-03T00:40:12;7.00;99.90
19680;DHT22;9989;48.962;9.182;2023-04-03T00:42:40;6.90;99.90
19680;DHT22;9989;48.962;9.182;2023-04-03T00:47:31;6.90;99.90
19680;DHT22;9989;48.962;9.182;2023-04-03T00:49:57;6.90;99.90
19680;DHT22;9989;48.962;9.182;2023-04-03T00:52:26;6.80;99.90
19680;DHT22;9989;48.962;9.182;2023-04-03T00:54:56;6.80;99.90
19680;DHT22;9989;48.962;9.182;2023-04-03T00:57:23;6.80;99.90
19680;DHT22;9989;48.962;9.182;2023-04-03T00:59:52;6.80;99.90
19680;DHT22;9989;48.962;9.182;2023-04-03T01:02:19;6.70;99.90
19680;DHT22;9989;48.962;9.182;2023-04-03T01:04:45;6.70;99.90
19680;DHT22;9989;48.962;9.182;2023-04-03T01:07:18;6.70;99.90
19680;DHT22;9989;48.962;9.182;2023-04-03T01:09:48;6.60;99.90
19680;DHT22;9989;48.962;9.182;2023-04-03T01:12:27;6.60;99.90
19680;DHT22;9989;48.962;9.182;2023-04-03T01:14:58;6.60;99.90
19680;DHT22;9989;48.962;9.182;2023-04-03T01:25:54;6.60;99.90
19680;DHT22;9989;48.962;9.182;2023-04-03T01:28:31;6.40;99.90
19680;DHT22;9989;48.962;9.182;2023-04-03T01:31:25;6.40;99.90
19680;DHT22;9989;48.962;9.182;2023-04-03T01:33:51;6.40;99.90
19680;DHT22;9989;48.962;9.182;2023-04-03T01:36:23;6.30;99.90
19680;DHT22;9989;48.962;9.182;2023-04-03T01:38:50;6.20;99.90
19680;DHT22;9989;48.962;9.182;2023-04-03T01:41:16;6.10;99.90
19680;DHT22;9989;48.962;9.182;2023-04-03T01:43:42;6.00;99.90
19680;DHT22;9989;48.962;9.182;2023-04-03T01:46:08;5.90;99.90
19680;DHT22;9989;48.962;9.182;2023-04-03T01:48:34;5.80;99.90
19680;DHT22;9989;48.962;9.182;2023-04-03T01:51:00;5.80;99.90
19680;DHT22;9989;48.962;9.182;2023-04-03T01:53:25;5.80;99.90
19680;DHT22;9989;48.962;9.182;2023-04-03T01:55:51;5.80;99.90
19680;DHT22;9989;48.962;9.182;2023-04-03T01:58:16;5.80;99.90
19680;DHT22;9989;48.962;9.182;2023-04-03T02:00:42;5.80;99.90
19680;DHT22;9989;48.962;9.182;2023-04-03T02:03:08;5.80;99.90
19680;DHT22;9989;48.962;9.182;2023-04-03T02:05:34;5.80;99.90
19680;DHT22;9989;48.962;9.182;2023-04-03T02:08:00;5.70;99.90
19680;DHT22;9989;48.962;9.182;2023-04-03T02:10:26;5.70;99.90
19680;DHT22;9989;48.962;9.182;2023-04-03T02:12:51;5.70;99.90
19680;DHT22;9989;48.962;9.182;2023-04-03T02:15:17;5.70;99.90
19680;DHT22;9989;48.962;9.182;2023-04-03T02:17:43;5.70;99.90
19680;DHT22;9989;48.962;9.182;2023-04-03T02:20:09;5.60;99.90
19680;DHT22;9989;48.962;9.182;2023-04-03T02:22:35;5.60;99.90
19680;DHT22;9989;48.962;9.182;2023-04-03T02:25:01;5.70;99.90
19680;DHT22;9989;48.962;9.182;2023-04-03T02:27:26;5.70;99.90
19680;DHT22;9989;48.962;9.182;2023-04-03T02:29:52;5.70;99.90
19680;DHT22;9989;48.962;9.182;2023-04-03T02:32:18;5.70;99.90
19680;DHT22;9989;48.962;9.182;2023-04-03T02:34:43;5.70;99.90
19680;DHT22;9989;48.962;9.182;2023-04-03T02:37:09;5.70;99.90
19680;DHT22;9989;48.962;9.182;2023-04-03T02:39:34;5.70;99.90
19680;DHT22;9989;48.962;9.182;2023-04-03T02:42:00;5.70;99.90
19680;DHT22;9989;48.962;9.182;2023-04-03T02:44:29;5.70;99.90
19680;DHT22;9989;48.962;9.182;2023-04-03T02:46:55;5.70;99.90
19680;DHT22;9989;48.962;9.182;2023-04-03T02:49:20;5.70;99.90
19680;DHT22;9989;48.962;9.182;2023-04-03T02:51:46;5.80;99.90
19680;DHT22;9989;48.962;9.182;2023-04-03T02:54:11;5.80;99.90
19680;DHT22;9989;48.962;9.182;2023-04-03T02:56:37;5.90;99.90
19680;DHT22;9989;48.962;9.182;2023-04-03T02:59:03;5.90;99.90
19680;DHT22;9989;48.962;9.182;2023-04-03T03:01:29;5.90;99.90
19680;DHT22;9989;48.962;9.182;2023-04-03T03:03:57;5.90;99.90
19680;DHT22;9989;48.962;9.182;2023-04-03T03:06:23;6.00;99.90
19680;DHT22;9989;48.962;9.182;2023-04-03T03:08:48;6.00;99.90
19680;DHT22;9989;48.962;9.182;2023-04-03T03:11:14;6.00;99.90
19680;DHT22;9989;48.962;9.182;2023-04-03T03:13:40;6.00;99.90
19680;DHT22;9989;48.962;9.182;2023-04-03T03:16:06;6.00;99.90
19680;DHT22;9989;48.962;9.182;2023-04-03T03:18:32;6.00;99.90
19680;DHT22;9989;48.962;9.182;2023-04-03T03:21:00;6.00;99.90
19680;DHT22;9989;48.962;9.182;2023-04-03T03:23:27;6.00;99.90
19680;DHT22;9989;48.962;9.182;2023-04-03T03:26:02;6.10;99.90
19680;DHT22;9989;48.962;9.182;2023-04-03T03:28:28;6.10;99.90
19680;DHT22;9989;48.962;9.182;2023-04-03T03:30:53;6.10;99.90
19680;DHT22;9989;48.962;9.182;2023-04-03T03:33:19;6.20;99.90
19680;DHT22;9989;48.962;9.182;2023-04-03T03:35:45;6.10;99.90
19680;DHT22;9989;48.962;9.182;2023-04-03T03:38:11;6.20;99.90
19680;DHT22;9989;48.962;9.182;2023-04-03T03:40:37;6.10;99.90
19680;DHT22;9989;48.962;9.182;2023-04-03T03:43:03;6.10;99.90
19680;DHT22;9989;48.962;9.182;2023-04-03T03:45:28;6.00;99.90
19680;DHT22;9989;48.962;9.182;2023-04-03T03:47:54;6.00;99.90
19680;DHT22;9989;48.962;9.182;2023-04-03T03:50:20;6.00;99.90
19680;DHT22;9989;48.962;9.182;2023-04-03T03:52:46;6.10;99.90
19680;DHT22;9989;48.962;9.182;2023-04-03T03:55:11;6.00;99.90
19680;DHT22;9989;48.962;9.182;2023-04-03T03:57:37;6.00;99.90
19680;DHT22;9989;48.962;9.182;2023-04-03T04:00:03;6.00;99.90
19680;DHT22;9989;48.962;9.182;2023-04-03T04:02:29;6.00;99.90
19680;DHT22;9989;48.962;9.182;2023-04-03T04:04:55;6.10;99.90
19680;DHT22;9989;48.962;9.182;2023-04-03T04:07:21;6.10;99.90
19680;DHT22;9989;48.962;9.182;2023-04-03T04:09:47;6.20;99.90
19680;DHT22;9989;48.962;9.182;2023-04-03T04:12:12;6.20;99.90
19680;DHT22;9989;48.962;9.182;2023-04-03T04:14:38;6.20;99.90
19680;DHT22;9989;48.962;9.182;2023-04-03T04:17:03;6.20;99.90
19680;DHT22;9989;48.962;9.182;2023-04-03T04:19:29;6.20;99.90
19680;DHT22;9989;48.962;9.182;2023-04-03T04:21:55;6.20;99.90
19680;DHT22;9989;48.962;9.182;2023-04-03T04:24:20;6.20;99.90
19680;DHT22;9989;48.962;9.182;2023-04-03T04:26:48;6.20;99.90
19680;DHT22;9989;48.962;9.182;2023-04-03T04:29:13;6.10;99.90
19680;DHT22;9989;48.962;9.182;2023-04-03T04:31:39;6.10;99.90
19680;DHT22;9989;48.962;9.182;2023-04-03T04:34:05;6.10;99.90
19680;DHT22;9989;48.962;9.182;2023-04-03T04:36:31;6.10;99.90
19680;DHT22;9989;48.962;9.182;2023-04-03T04:38:56;6.20;99.90
19680;DHT22;9989;48.962;9.182;2023-04-03T04:41:23;6.20;99.90
19680;DHT22;9989;48.962;9.182;2023-04-03T04:43:51;6.30;99.90
19680;DHT22;9989;48.962;9.182;2023-04-03T04:46:17;6.30;99.90
19680;DHT22;9989;48.962;9.182;2023-04-03T04:48:43;6.30;99.90
19680;DHT22;9989;48.962;9.182;2023-04-03T04:51:09;6.30;99.90
19680;DHT22;9989;48.962;9.182;2023-04-03T04:53:35;6.20;99.90
19680;DHT22;9989;48.962;9.182;2023-04-03T04:56:00;6.10;99.90
19680;DHT22;9989;48.962;9.182;2023-04-03T04:58:26;6.10;99.90
19680;DHT22;9989;48.962;9.182;2023-04-03T05:01:18;6.00;99.90
19680;DHT22;9989;48.962;9.182;2023-04-03T05:03:44;6.00;99.90
19680;DHT22;9989;48.962;9.182;2023-04-03T05:06:09;5.90;99.90
19680;DHT22;9989;48.962;9.182;2023-04-03T05:08:35;5.80;99.90
19680;DHT22;9989;48.962;9.182;2023-04-03T05:11:25;5.80;99.90
19680;DHT22;9989;48.962;9.182;2023-04-03T05:13:51;5.80;99.90
19680;DHT22;9989;48.962;9.182;2023-04-03T05:16:17;5.80;99.90
19680;DHT22;9989;48.962;9.182;2023-04-03T05:18:43;5.90;99.90
19680;DHT22;9989;48.962;9.182;2023-04-03T05:21:09;5.90;99.90
19680;DHT22;9989;48.962;9.182;2023-04-03T05:23:34;5.90;99.90
19680;DHT22;9989;48.962;9.182;2023-04-03T05:26:00;5.90;99.90
19680;DHT22;9989;48.962;9.182;2023-04-03T05:28:25;5.90;99.90
19680;DHT22;9989;48.962;9.182;2023-04-03T05:30:57;6.00;99.90
19680;DHT22;9989;48.962;9.182;2023-04-03T05:33:24;6.00;99.90
19680;DHT22;9989;48.962;9.182;2023-04-03T05:35:52;6.00;99.90
19680;DHT22;9989;48.962;9.182;2023-04-03T05:38:18;6.00;99.90
19680;DHT22;9989;48.962;9.182;2023-04-03T05:40:44;6.10;99.90
19680;DHT22;9989;48.962;9.182;2023-04-03T05:43:10;6.10;99.90
19680;DHT22;9989;48.962;9.182;2023-04-03T05:45:35;6.10;99.90
19680;DHT22;9989;48.962;9.182;2023-04-03T05:48:01;6.10;99.90
19680;DHT22;9989;48.962;9.182;2023-04-03T05:50:27;6.10;99.90
19680;DHT22;9989;48.962;9.182;2023-04-03T05:52:55;6.20;99.90
19680;DHT22;9989;48.962;9.182;2023-04-03T05:55:22;6.20;99.90
19680;DHT22;9989;48.962;9.182;2023-04-03T05:57:47;6.20;99.90
19680;DHT22;9989;48.962;9.182;2023-04-03T06:00:14;6.20;99.90
19680;DHT22;9989;48.962;9.182;2023-04-03T06:02:43;6.20;99.90
19680;DHT22;9989;48.962;9.182;2023-04-03T06:05:09;6.20;99.90
19680;DHT22;9989;48.962;9.182;2023-04-03T06:07:37;6.20;99.90
19680;DHT22;9989;48.962;9.182;2023-04-03T06:10:03;6.20;99.90
19680;DHT22;9989;48.962;9.182;2023-04-03T06:12:29;6.20;99.90
19680;DHT22;9989;48.962;9.182;2023-04-03T06:14:55;6.20;99.90
19680;DHT22;9989;48.962;9.182;2023-04-03T06:17:21;6.30;99.90
19680;DHT22;9989;48.962;9.182;2023-04-03T06:19:47;6.30;99.90
19680;DHT22;9989;48.962;9.182;2023-04-03T06:22:13;6.40;99.90
19680;DHT22;9989;48.962;9.182;2023-04-03T06:24:39;6.40;99.90
19680;DHT22;9989;48.962;9.182;2023-04-03T06:27:05;6.40;99.90
19680;DHT22;9989;48.962;9.182;2023-04-03T06:29:31;6.50;99.90
19680;DHT22;9989;48.962;9.182;2023-04-03T06:31:56;6.50;99.90
19680;DHT22;9989;48.962;9.182;2023-04-03T06:34:22;6.50;99.90
19680;DHT22;9989;48.962;9.182;2023-04-03T06:36:48;6.50;99.90
19680;DHT22;9989;48.962;9.182;2023-04-03T06:39:19;6.60;99.90
19680;DHT22;9989;48.962;9.182;2023-04-03T06:41:46;6.60;99.90
19680;DHT22;9989;48.962;9.182;2023-04-03T06:44:12;6.60;99.90
19680;DHT22;9989;48.962;9.182;2023-04-03T06:46:39;6.60;99.90
19680;DHT22;9989;48.962;9.182;2023-04-03T06:49:05;6.70;99.90
19680;DHT22;9989;48.962;9.182;2023-04-03T06:51:33;6.70;99.90
19680;DHT22;9989;48.962;9.182;2023-04-03T06:53:59;6.80;99.90
19680;DHT22;9989;48.962;9.182;2023-04-03T06:56:26;6.80;99.90
19680;DHT22;9989;48.962;9.182;2023-04-03T06:58:55;6.80;99.90
19680;DHT22;9989;48.962;9.182;2023-04-03T07:01:23;6.80;99.90
19680;DHT22;9989;48.962;9.182;2023-04-03T07:03:50;6.90;99.90
19680;DHT22;9989;48.962;9.182;2023-04-03T07:06:16;7.00;99.90
19680;DHT22;9989;48.962;9.182;2023-04-03T07:08:43;7.10;99.90
19680;DHT22;9989;48.962;9.182;2023-04-03T07:11:10;7.30;99.90
19680;DHT22;9989;48.962;9.182;2023-04-03T07:13:36;7.30;99.90
19680;DHT22;9989;48.962;9.182;2023-04-03T07:16:02;7.30;99.90
19680;DHT22;9989;48.962;9.182;2023-04-03T07:18:30;7.40;99.90
19680;DHT22;9989;48.962;9.182;2023-04-03T07:20:56;7.40;99.90
19680;DHT22;9989;48.962;9.182;2023-04-03T07:23:22;7.50;99.90
19680;DHT22;9989;48.962;9.182;2023-04-03T07:25:49;7.70;99.90
19680;DHT22;9989;48.962;9.182;2023-04-03T07:28:17;7.80;99.90
19680;DHT22;9989;48.962;9.182;2023-04-03T07:30:49;7.90;99.90
19680;DHT22;9989;48.962;9.182;2023-04-03T07:33:16;8.00;99.90
19680;DHT22;9989;48.962;9.182;2023-04-03T07:35:43;8.00;99.90
19680;DHT22;9989;48.962;9.182;2023-04-03T07:38:09;8.10;99.90
19680;DHT22;9989;48.962;9.182;2023-04-03T07:40:36;8.10;99.90
19680;DHT22;9989;48.962;9.182;2023-04-03T07:43:01;8.10;99.90
19680;DHT22;9989;48.962;9.182;2023-04-03T07:45:28;8.20;99.90
19680;DHT22;9989;48.962;9.182;2023-04-03T07:47:54;8.20;99.90
19680;DHT22;9989;48.962;9.182;2023-04-03T07:50:19;8.30;99.90
19680;DHT22;9989;48.962;9.182;2023-04-03T07:52:45;8.40;99.90
19680;DHT22;9989;48.962;9.182;2023-04-03T07:55:11;8.60;99.90
19680;DHT22;9989;48.962;9.182;2023-04-03T07:57:37;8.80;99.90
19680;DHT22;9989;48.962;9.182;2023-04-03T08:00:06;9.00;99.90
19680;DHT22;9989;48.962;9.182;2023-04-03T08:02:32;8.90;99.90
19680;DHT22;9989;48.962;9.182;2023-04-03T08:04:58;9.00;99.90
19680;DHT22;9989;48.962;9.182;2023-04-03T08:07:24;9.00;99.90
19680;DHT22;9989;48.962;9.182;2023-04-03T08:09:50;9.10;99.90
19680;DHT22;9989;48.962;9.182;2023-04-03T08:12:16;9.10;99.90
19680;DHT22;9989;48.962;9.182;2023-04-03T08:14:42;9.10;99.90
19680;DHT22;9989;48.962;9.182;2023-04-03T08:17:08;9.10;99.90
19680;DHT22;9989;48.962;9.182;2023-04-03T08:19:39;9.10;99.90
19680;DHT22;9989;48.962;9.182;2023-04-03T08:22:06;9.20;99.90
19680;DHT22;9989;48.962;9.182;2023-04-03T08:24:32;9.20;99.90
19680;DHT22;9989;48.962;9.182;2023-04-03T08:26:58;9.20;99.90
19680;DHT22;9989;48.962;9.182;2023-04-03T08:29:24;9.40;99.90
19680;DHT22;9989;48.962;9.182;2023-04-03T08:31:50;9.60;99.90
19680;DHT22;9989;48.962;9.182;2023-04-03T08:34:16;9.80;99.90
19680;DHT22;9989;48.962;9.182;2023-04-03T08:36:43;10.10;99.90
19680;DHT22;9989;48.962;9.182;2023-04-03T08:39:09;10.30;99.90
19680;DHT22;9989;48.962;9.182;2023-04-03T08:44:14;10.60;99.90
19680;DHT22;9989;48.962;9.182;2023-04-03T08:54:59;11.30;99.10
19680;DHT22;9989;48.962;9.182;2023-04-03T08:57:35;11.40;98.00
19680;DHT22;9989;48.962;9.182;2023-04-03T09:00:25;11.60;97.40
19680;DHT22;9989;48.962;9.182;2023-04-03T09:02:54;11.80;97.10
19680;DHT22;9989;48.962;9.182;2023-04-03T09:08:18;12.10;96.20
19680;DHT22;9989;48.962;9.182;2023-04-03T09:10:46;12.40;96.60
19680;DHT22;9989;48.962;9.182;2023-04-03T09:13:34;12.50;95.20
19680;DHT22;9989;48.962;9.182;2023-04-03T09:16:15;12.70;95.40
19680;DHT22;9989;48.962;9.182;2023-04-03T09:18:45;12.80;94.30
19680;DHT22;9989;48.962;9.182;2023-04-03T09:21:17;12.80;93.80
19680;DHT22;9989;48.962;9.182;2023-04-03T09:26:21;12.30;93.40
19680;DHT22;9989;48.962;9.182;2023-04-03T09:28:48;12.00;94.20
19680;DHT22;9989;48.962;9.182;2023-04-03T09:31:24;11.90;94.30
19680;DHT22;9989;48.962;9.182;2023-04-03T09:33:52;11.90;94.00
19680;DHT22;9989;48.962;9.182;2023-04-03T09:36:58;11.80;94.50
19680;DHT22;9989;48.962;9.182;2023-04-03T09:39:28;11.70;94.60
19680;DHT22;9989;48.962;9.182;2023-04-03T09:42:03;11.70;94.90
19680;DHT22;9989;48.962;9.182;2023-04-03T09:44:36;11.70;94.90
19680;DHT22;9989;48.962;9.182;2023-04-03T09:49:43;11.70;94.00
19680;DHT22;9989;48.962;9.182;2023-04-03T09:52:23;11.70;93.80
19680;DHT22;9989;48.962;9.182;2023-04-03T09:54:49;11.70;94.10
19680;DHT22;9989;48.962;9.182;2023-04-03T09:57:15;11.60;94.60
19680;DHT22;9989;48.962;9.182;2023-04-03T09:59:47;11.40;94.20
19680;DHT22;9989;48.962;9.182;2023-04-03T10:04:56;11.30;95.20
19680;DHT22;9989;48.962;9.182;2023-04-03T10:07:36;11.20;94.10
19680;DHT22;9989;48.962;9.182;2023-04-03T10:10:29;11.10;94.60
19680;DHT22;9989;48.962;9.182;2023-04-03T10:13:24;10.90;94.70
19680;DHT22;9989;48.962;9.182;2023-04-03T10:16:17;10.60;94.10
19680;DHT22;9989;48.962;9.182;2023-04-03T10:21:48;10.20;95.00
19680;DHT22;9989;48.962;9.182;2023-04-03T10:24:27;10.20;95.90
19680;DHT22;9989;48.962;9.182;2023-04-03T10:34:40;10.40;96.60
19680;DHT22;9989;48.962;9.182;2023-04-03T10:37:24;10.60;96.20
19680;DHT22;9989;48.962;9.182;2023-04-03T10:51:26;11.00;94.80
19680;DHT22;9989;48.962;9.182;2023-04-03T10:54:05;11.00;94.70
19680;DHT22;9989;48.962;9.182;2023-04-03T10:56:42;10.80;94.80
19680;DHT22;9989;48.962;9.182;2023-04-03T10:59:30;10.70;94.40
19680;DHT22;9989;48.962;9.182;2023-04-03T11:02:00;10.50;94.90
19680;DHT22;9989;48.962;9.182;2023-04-03T11:04:30;10.40;94.80
19680;DHT22;9989;48.962;9.182;2023-04-03T11:09:31;10.30;94.10
19680;DHT22;9989;48.962;9.182;2023-04-03T11:12:05;10.20;93.50
19680;DHT22;9989;48.962;9.182;2023-04-03T11:14:35;10.10;93.40
19680;DHT22;9989;48.962;9.182;2023-04-03T11:20:08;9.90;93.10
19680;DHT22;9989;48.962;9.182;2023-04-03T11:22:41;9.70;93.00
19680;DHT22;9989;48.962;9.182;2023-04-03T11:25:17;9.70;93.60
19680;DHT22;9989;48.962;9.182;2023-04-03T11:28:05;9.70;93.90
19680;DHT22;9989;48.962;9.182;2023-04-03T11:36:12;9.30;93.50
19680;DHT22;9989;48.962;9.182;2023-04-03T11:38:43;9.30;93.20
19680;DHT22;9989;48.962;9.182;2023-04-03T11:41:11;9.30;93.10
19680;DHT22;9989;48.962;9.182;2023-04-03T11:44:03;9.30;93.80
19680;DHT22;9989;48.962;9.182;2023-04-03T11:46:57;9.40;93.20
19680;DHT22;9989;48.962;9.182;2023-04-03T11:49:56;9.40;93.20
19680;DHT22;9989;48.962;9.182;2023-04-03T12:35:44;10.10;88.90
19680;DHT22;9989;48.962;9.182;2023-04-03T12:38:37;10.20;90.20
19680;DHT22;9989;48.962;9.182;2023-04-03T12:46:50;10.20;88.70
19680;DHT22;9989;48.962;9.182;2023-04-03T12:49:37;10.30;88.20
19680;DHT22;9989;48.962;9.182;2023-04-03T12:52:15;10.30;88.00
19680;DHT22;9989;48.962;9.182;2023-04-03T12:54:42;10.30;87.40
19680;DHT22;9989;48.962;9.182;2023-04-03T12:57:26;10.40;85.50
19680;DHT22;9989;48.962;9.182;2023-04-03T12:59:53;10.60;85.00
19680;DHT22;9989;48.962;9.182;2023-04-03T13:04:57;10.80;81.50
19680;DHT22;9989;48.962;9.182;2023-04-03T13:07:34;10.90;81.70
19680;DHT22;9989;48.962;9.182;2023-04-03T13:12:35;11.00;78.50
19680;DHT22;9989;48.962;9.182;2023-04-03T13:15:15;11.00;78.40
19680;DHT22;9989;48.962;9.182;2023-04-03T13:17:43;11.20;76.80
19680;DHT22;9989;48.962;9.182;2023-04-03T13:20:14;11.30;76.50
19680;DHT22;9989;48.962;9.182;2023-04-03T13:23:10;11.40;76.00
19680;DHT22;9989;48.962;9.182;2023-04-03T13:25:36;11.30;76.20
19680;DHT22;9989;48.962;9.182;2023-04-03T13:28:04;11.40;79.00
19680;DHT22;9989;48.962;9.182;2023-04-03T13:30:33;11.90;82.00
19680;DHT22;9989;48.962;9.182;2023-04-03T13:33:01;12.30;77.50
19680;DHT22;9989;48.962;9.182;2023-04-03T13:35:39;12.60;77.60
19680;DHT22;9989;48.962;9.182;2023-04-03T13:38:27;12.80;74.20
19680;DHT22;9989;48.962;9.182;2023-04-03T13:40:55;12.70;73.80
19680;DHT22;9989;48.962;9.182;2023-04-03T13:43:27;12.40;73.00
19680;DHT22;9989;48.962;9.182;2023-04-03T13:48:43;11.80;74.50
19680;DHT22;9989;48.962;9.182;2023-04-03T13:56:25;11.20;76.10
19680;DHT22;9989;48.962;9.182;2023-04-03T13:59:21;11.00;75.00
19680;DHT22;9989;48.962;9.182;2023-04-03T14:04:28;10.60;74.80
19680;DHT22;9989;48.962;9.182;2023-04-03T14:06:54;10.60;76.40
19680;DHT22;9989;48.962;9.182;2023-04-03T14:09:21;11.00;74.00
19680;DHT22;9989;48.962;9.182;2023-04-03T14:11:50;11.40;74.20
19680;DHT22;9989;48.962;9.182;2023-04-03T14:14:23;11.70;73.20
19680;DHT22;9989;48.962;9.182;2023-04-03T14:16:53;11.90;72.20
19680;DHT22;9989;48.962;9.182;2023-04-03T14:19:25;11.90;74.20
19680;DHT22;9989;48.962;9.182;2023-04-03T14:21:53;11.90;74.40
19680;DHT22;9989;48.962;9.182;2023-04-03T14:24:20;11.80;75.00
19680;DHT22;9989;48.962;9.182;2023-04-03T14:26:49;11.60;73.70
19680;DHT22;9989;48.962;9.182;2023-04-03T14:29:15;11.30;73.70
19680;DHT22;9989;48.962;9.182;2023-04-03T14:31:43;11.10;71.90
19680;DHT22;9989;48.962;9.182;2023-04-03T14:34:11;11.00;73.40
19680;DHT22;9989;48.962;9.182;2023-04-03T14:36:37;10.90;74.00
19680;DHT22;9989;48.962;9.182;2023-04-03T14:39:05;11.20;73.90
19680;DHT22;9989;48.962;9.182;2023-04-03T14:41:31;11.40;72.90
19680;DHT22;9989;48.962;9.182;2023-04-03T14:43:57;11.30;70.70
19680;DHT22;9989;48.962;9.182;2023-04-03T14:46:31;11.20;72.20
19680;DHT22;9989;48.962;9.182;2023-04-03T14:48:57;11.00;71.60
19680;DHT22;9989;48.962;9.182;2023-04-03T14:51:23;10.70;71.30
19680;DHT22;9989;48.962;9.182;2023-04-03T14:53:49;10.60;71.60
19680;DHT22;9989;48.962;9.182;2023-04-03T14:56:22;11.00;72.60
19680;DHT22;9989;48.962;9.182;2023-04-03T14:58:49;11.60;70.60
19680;DHT22;9989;48.962;9.182;2023-04-03T15:01:18;12.70;70.10
19680;DHT22;9989;48.962;9.182;2023-04-03T15:03:43;14.40;65.70
19680;DHT22;9989;48.962;9.182;2023-04-03T15:06:12;16.00;60.00
19680;DHT22;9989;48.962;9.182;2023-04-03T15:08:38;17.40;56.50
19680;DHT22;9989;48.962;9.182;2023-04-03T15:11:03;17.90;54.50
19680;DHT22;9989;48.962;9.182;2023-04-03T15:13:29;17.80;53.80
19680;DHT22;9989;48.962;9.182;2023-04-03T15:15:55;17.10;53.40
19680;DHT22;9989;48.962;9.182;2023-04-03T15:18:24;15.90;54.30
19680;DHT22;9989;48.962;9.182;2023-04-03T15:20:54;15.10;56.90
19680;DHT22;9989;48.962;9.182;2023-04-03T15:23:20;14.40;58.40
19680;DHT22;9989;48.962;9.182;2023-04-03T15:25:47;13.90;59.90
19680;DHT22;9989;48.962;9.182;2023-04-03T15:28:37;13.40;59.60
19680;DHT22;9989;48.962;9.182;2023-04-03T15:31:04;12.70;59.10
19680;DHT22;9989;48.962;9.182;2023-04-03T15:33:30;12.20;60.00
19680;DHT22;9989;48.962;9.182;2023-04-03T15:35:56;11.90;61.00
19680;DHT22;9989;48.962;9.182;2023-04-03T15:38:22;11.90;61.40
19680;DHT22;9989;48.962;9.182;2023-04-03T15:40:47;12.80;61.10
19680;DHT22;9989;48.962;9.182;2023-04-03T15:43:14;14.00;58.30
19680;DHT22;9989;48.962;9.182;2023-04-03T15:45:40;15.60;57.40
19680;DHT22;9989;48.962;9.182;2023-04-03T15:48:07;17.50;52.30
19680;DHT22;9989;48.962;9.182;2023-04-03T15:50:33;18.60;49.90
19680;DHT22;9989;48.962;9.182;2023-04-03T15:53:00;18.30;48.20
19680;DHT22;9989;48.962;9.182;2023-04-03T15:55:29;17.40;49.60
19680;DHT22;9989;48.962;9.182;2023-04-03T15:57:55;16.40;50.50
19680;DHT22;9989;48.962;9.182;2023-04-03T16:00:21;15.80;52.80
19680;DHT22;9989;48.962;9.182;2023-04-03T16:02:50;15.30;54.20
19680;DHT22;9989;48.962;9.182;2023-04-03T16:05:17;14.70;54.80
19680;DHT22;9989;48.962;9.182;2023-04-03T16:07:43;14.10;55.90
19680;DHT22;9989;48.962;9.182;2023-04-03T16:10:09;13.50;56.20
19680;DHT22;9989;48.962;9.182;2023-04-03T16:12:36;13.20;58.20
19680;DHT22;9989;48.962;9.182;2023-04-03T16:15:02;13.40;59.40
19680;DHT22;9989;48.962;9.182;2023-04-03T16:17:28;13.80;56.90
19680;DHT22;9989;48.962;9.182;2023-04-03T16:19:55;13.90;56.10
19680;DHT22;9989;48.962;9.182;2023-04-03T16:22:21;13.60;56.10
19680;DHT22;9989;48.962;9.182;2023-04-03T16:24:49;13.10;56.60
19680;DHT22;9989;48.962;9.182;2023-04-03T16:27:15;12.50;57.10
19680;DHT22;9989;48.962;9.182;2023-04-03T16:29:41;12.00;58.10
19680;DHT22;9989;48.962;9.182;2023-04-03T16:32:10;11.50;59.50
19680;DHT22;9989;48.962;9.182;2023-04-03T16:34:35;11.10;60.20
19680;DHT22;9989;48.962;9.182;2023-04-03T16:37:01;10.80;61.90
19680;DHT22;9989;48.962;9.182;2023-04-03T16:39:27;10.60;63.10
19680;DHT22;9989;48.962;9.182;2023-04-03T16:41:52;10.50;64.70
19680;DHT22;9989;48.962;9.182;2023-04-03T16:44:18;10.40;65.90
19680;DHT22;9989;48.962;9.182;2023-04-03T16:46:44;10.30;65.30
19680;DHT22;9989;48.962;9.182;2023-04-03T16:49:09;10.20;64.60
19680;DHT22;9989;48.962;9.182;2023-04-03T16:51:35;10.20;65.70
19680;DHT22;9989;48.962;9.182;2023-04-03T16:54:01;10.10;66.50
19680;DHT22;9989;48.962;9.182;2023-04-03T16:56:26;10.10;67.60
19680;DHT22;9989;48.962;9.182;2023-04-03T16:58:53;10.00;67.80
19680;DHT22;9989;48.962;9.182;2023-04-03T17:01:20;10.00;68.70
19680;DHT22;9989;48.962;9.182;2023-04-03T17:03:46;9.90;70.00
19680;DHT22;9989;48.962;9.182;2023-04-03T17:06:16;9.80;68.40
19680;DHT22;9989;48.962;9.182;2023-04-03T17:08:44;9.70;68.40
19680;DHT22;9989;48.962;9.182;2023-04-03T17:11:10;9.60;68.50
19680;DHT22;9989;48.962;9.182;2023-04-03T17:13:35;9.50;69.30
19680;DHT22;9989;48.962;9.182;2023-04-03T17:16:03;9.40;69.40
19680;DHT22;9989;48.962;9.182;2023-04-03T17:18:32;9.30;69.30
19680;DHT22;9989;48.962;9.182;2023-04-03T17:20:58;9.20;69.50
19680;DHT22;9989;48.962;9.182;2023-04-03T17:23:25;9.20;70.10
19680;DHT22;9989;48.962;9.182;2023-04-03T17:25:51;9.10;70.90
19680;DHT22;9989;48.962;9.182;2023-04-03T17:28:19;9.00;71.30
19680;DHT22;9989;48.962;9.182;2023-04-03T17:30:47;9.00;71.70
19680;DHT22;9989;48.962;9.182;2023-04-03T17:33:12;8.90;71.80
19680;DHT22;9989;48.962;9.182;2023-04-03T17:35:38;8.80;72.10
19680;DHT22;9989;48.962;9.182;2023-04-03T17:38:04;8.80;72.70
19680;DHT22;9989;48.962;9.182;2023-04-03T17:40:29;8.80;73.10
19680;DHT22;9989;48.962;9.182;2023-04-03T17:42:55;8.70;72.80
19680;DHT22;9989;48.962;9.182;2023-04-03T17:45:21;8.60;72.40
19680;DHT22;9989;48.962;9.182;2023-04-03T17:47:46;8.60;73.00
19680;DHT22;9989;48.962;9.182;2023-04-03T17:50:14;8.50;73.20
19680;DHT22;9989;48.962;9.182;2023-04-03T17:52:40;8.50;73.50
19680;DHT22;9989;48.962;9.182;2023-04-03T17:55:06;8.40;73.10
19680;DHT22;9989;48.962;9.182;2023-04-03T17:57:32;8.40;73.40
19680;DHT22;9989;48.962;9.182;2023-04-03T17:59:57;8.30;74.20
19680;DHT22;9989;48.962;9.182;2023-04-03T18:02:23;8.30;75.10
19680;DHT22;9989;48.962;9.182;2023-04-03T18:04:52;8.30;74.20
19680;DHT22;9989;48.962;9.182;2023-04-03T18:07:18;8.20;74.10
19680;DHT22;9989;48.962;9.182;2023-04-03T18:09:46;8.10;74.60
19680;DHT22;9989;48.962;9.182;2023-04-03T18:12:12;8.00;74.80
19680;DHT22;9989;48.962;9.182;2023-04-03T18:14:39;8.00;75.30